Time;durP1;ratioP1;P1;durP2;ratioP2;P2;SDS_P1;SDS_P2;PMS_P1;PMS_P2;Temp;Humidity;BMP_temperature;BMP_pressure;BME280_temperature;BME280_humidity;BME280_pressure;Samples;Min_cycle;Max_cycle;Signal;HPM_P1;HPM_P2
2021/05/16 00:01:11;;;;;;;4.85;3.30;;;;;;;10.28;88.11;95209.84;4814698;29;20037;-91
2021/05/16 00:03:37;;;;;;;3.30;2.58;;;;;;;10.63;87.50;95275.50;4814663;29;20038;-92
2021/05/16 00:06:03;;;;;;;3.78;2.85;;;;;;;10.07;87.34;95212.63;4814570;29;20125;-91
2021/05/16 00:08:29;;;;;;;4.18;3.40;;;;;;;10.17;89.27;95238.38;4814642;29;20070;-92
2021/05/16 00:10:55;;;;;;;4.15;3.05;;;;;;;9.90;88.54;95195.47;4814688;29;20038;-91
2021/05/16 00:13:21;;;;;;;5.22;2.80;;;;;;;9.55;89.13;95131.34;4814540;29;20156;-91
2021/05/16 00:15:47;;;;;;;5.22;3.22;;;;;;;9.98;89.15;95208.13;4814539;29;20064;-91
2021/05/16 00:18:13;;;;;;;5.97;4.30;;;;;;;9.64;88.20;95157.53;4814576;29;20030;-92
2021/05/16 00:20:39;;;;;;;6.00;5.40;;;;;;;9.98;89.57;95210.84;4814488;29;20038;-92
2021/05/16 00:23:05;;;;;;;9.40;6.88;;;;;;;9.88;89.05;95201.38;4814322;29;20087;-93
2021/05/16 00:25:32;;;;;;;10.15;8.05;;;;;;;9.92;89.86;95210.03;4814343;29;20030;-91
2021/05/16 00:27:58;;;;;;;9.02;7.03;;;;;;;9.93;88.27;95208.06;4814360;29;20030;-93
2021/05/16 00:30:25;;;;;;;7.45;5.00;;;;;;;10.30;88.61;95256.25;4814349;29;20034;-92
2021/05/16 00:32:53;;;;;;;5.70;4.82;;;;;;;10.23;88.39;95254.69;4814256;29;20033;-92
2021/05/16 00:35:20;;;;;;;4.57;3.30;;;;;;;9.83;88.12;95206.75;4814250;29;20038;-92
2021/05/16 00:37:45;;;;;;;4.57;3.00;;;;;;;10.09;88.45;95239.28;4802282;29;20031;-90
2021/05/16 00:40:12;;;;;;;5.10;2.67;;;;;;;9.82;87.26;95181.59;4797501;29;20033;-91
2021/05/16 00:42:38;;;;;;;3.78;2.22;;;;;;;9.84;85.64;95186.53;4795687;29;20114;-91
2021/05/16 00:45:08;;;;;;;2.22;2.03;;;;;;;10.11;84.82;95240.28;4796092;29;20096;-91
2021/05/16 00:47:34;;;;;;;3.65;2.10;;;;;;;9.66;85.88;95195.75;4796016;29;20064;-92
2021/05/16 00:50:00;;;;;;;2.58;2.38;;;;;;;9.54;86.22;95197.63;4795863;29;20058;-92
2021/05/16 00:52:27;;;;;;;2.17;1.98;;;;;;;9.46;86.78;95199.25;4795897;29;20114;-92
2021/05/16 00:54:56;;;;;;;2.60;2.22;;;;;;;9.30;88.39;95178.16;4795853;29;20392;-92
2021/05/16 00:57:23;;;;;;;3.03;2.10;;;;;;;9.70;87.89;95245.84;4795757;29;20487;-92
2021/05/16 00:59:49;;;;;;;4.43;2.65;;;;;;;9.22;88.60;95171.66;4807710;29;20508;-91
2021/05/16 01:02:14;;;;;;;3.42;2.55;;;;;;;9.47;88.93;95198.03;4808744;29;20030;-92
2021/05/16 01:04:41;;;;;;;3.63;2.60;;;;;;;9.45;88.63;95181.50;4795708;29;20037;-92
2021/05/16 01:07:07;;;;;;;3.65;2.50;;;;;;;10.00;87.78;95253.75;4795496;29;20027;-91
2021/05/16 01:09:33;;;;;;;3.17;1.90;;;;;;;10.08;86.25;95251.38;4795647;29;20027;-92
2021/05/16 01:12:01;;;;;;;3.83;2.30;;;;;;;9.95;86.70;95249.00;4795578;29;20047;-93
2021/05/16 01:14:40;;;;;;;7.18;2.63;;;;;;;9.27;87.70;95168.25;4795562;29;20424;-93
2021/05/16 01:17:06;;;;;;;5.35;2.58;;;;;;;9.32;88.53;95154.78;4795545;29;20031;-91
2021/05/16 01:19:33;;;;;;;4.00;2.83;;;;;;;9.49;87.95;95182.03;4795479;29;20033;-92
2021/05/16 01:22:00;;;;;;;4.45;2.90;;;;;;;9.91;88.56;95243.81;4796244;29;20035;-91
2021/05/16 01:24:28;;;;;;;3.67;3.28;;;;;;;9.69;87.19;95211.81;4795344;29;20036;-92
2021/05/16 01:26:54;;;;;;;5.65;3.28;;;;;;;9.81;86.85;95239.03;4795388;29;20031;-91
2021/05/16 01:29:21;;;;;;;3.78;2.92;;;;;;;9.76;87.91;95226.91;4795098;29;20041;-91
2021/05/16 01:35:09;;;;;;;3.92;3.00;;;;;;;9.60;88.14;95186.84;4811184;29;20488;-91
2021/05/16 01:37:35;;;;;;;4.72;2.70;;;;;;;9.58;88.76;95192.72;4811026;29;20042;-93
2021/05/16 01:40:02;;;;;;;3.72;2.92;;;;;;;9.30;88.15;95170.03;4800687;29;20024;-91
2021/05/16 01:42:29;;;;;;;2.95;2.65;;;;;;;9.12;87.94;95150.13;4812907;29;20034;-91
2021/05/16 01:45:01;;;;;;;3.67;2.10;;;;;;;9.62;88.65;95225.78;4813090;29;20119;-90
2021/05/16 01:47:26;;;;;;;2.20;2.00;;;;;;;8.84;89.13;95105.75;4807445;29;20068;-91
2021/05/16 01:49:55;;;;;;;3.58;1.85;;;;;;;9.73;89.31;95232.53;4794817;29;20368;-91
2021/05/16 01:52:26;;;;;;;2.85;1.70;;;;;;;9.65;87.83;95227.53;4795109;29;20035;-92
2021/05/16 01:54:51;;;;;;;3.17;1.60;;;;;;;9.16;87.54;95166.94;4804326;29;20026;-91
2021/05/16 01:57:19;;;;;;;1.70;1.60;;;;;;;9.23;86.89;95181.28;4807080;29;20087;-92
2021/05/16 01:59:44;;;;;;;3.97;1.40;;;;;;;8.93;86.60;95143.50;4794731;29;20113;-91
2021/05/16 02:02:10;;;;;;;2.53;1.70;;;;;;;8.99;87.41;95152.44;4794688;29;20180;-92
2021/05/16 02:04:37;;;;;;;2.88;1.90;;;;;;;9.50;87.85;95232.31;4794637;29;20297;-93
2021/05/16 02:07:04;;;;;;;3.83;1.88;;;;;;;9.09;88.58;95172.00;4794669;29;20118;-92
2021/05/16 02:09:29;;;;;;;2.88;2.20;;;;;;;9.58;88.81;95219.81;4794685;29;20045;-93
2021/05/16 02:11:56;;;;;;;4.40;3.50;;;;;;;9.56;89.60;95227.69;4794594;29;20031;-91
2021/05/16 02:14:26;;;;;;;4.93;2.97;;;;;;;9.22;89.85;95167.00;4794592;29;20060;-90
2021/05/16 02:16:52;;;;;;;3.25;2.30;;;;;;;9.09;88.67;95144.91;4799328;29;20402;-92
2021/05/16 02:19:18;;;;;;;5.10;2.58;;;;;;;9.44;89.29;95188.91;4812988;29;20467;-91
2021/05/16 02:21:54;;;;;;;4.80;2.50;;;;;;;9.07;88.14;95141.94;4812716;29;20038;-92
2021/05/16 02:24:20;;;;;;;4.78;2.97;;;;;;;9.69;89.92;95230.78;4828955;29;20038;-92
2021/05/16 02:26:47;;;;;;;5.53;3.10;;;;;;;9.45;89.04;95195.81;4829067;29;20041;-91
2021/05/16 02:29:17;;;;;;;3.83;3.05;;;;;;;9.43;88.64;95192.09;4812590;29;20359;-92
2021/05/16 02:31:44;;;;;;;3.30;3.00;;;;;;;9.55;89.80;95192.94;4801176;29;20364;-92
2021/05/16 02:34:09;;;;;;;4.18;3.40;;;;;;;9.90;88.56;95231.47;4794623;29;20089;-92
2021/05/16 02:36:35;;;;;;;4.75;3.38;;;;;;;9.49;88.95;95144.09;4794287;29;20026;-92
2021/05/16 02:39:04;;;;;;;3.10;2.80;;;;;;;9.51;87.64;95132.78;4794331;29;20030;-92
2021/05/16 02:41:29;;;;;;;4.82;3.80;;;;;;;9.51;88.29;95146.31;4799648;29;20484;-93
2021/05/16 02:43:55;;;;;;;4.63;3.53;;;;;;;9.41;87.95;95140.31;4812493;29;20034;-92
2021/05/16 02:46:20;;;;;;;5.45;3.88;;;;;;;9.35;88.62;95132.13;4812007;29;20046;-91
2021/05/16 02:48:46;;;;;;;3.92;3.55;;;;;;;9.48;88.47;95168.94;4812269;29;20332;-92
2021/05/16 02:51:11;;;;;;;4.68;4.25;;;;;;;9.03;88.88;95106.19;4812159;29;20031;-92
2021/05/16 02:53:37;;;;;;;4.63;3.75;;;;;;;9.06;87.97;95106.00;4812086;29;20034;-92
2021/05/16 02:56:03;;;;;;;4.10;3.70;;;;;;;9.11;89.20;95124.28;4811919;29;20030;-93
2021/05/16 02:58:29;;;;;;;5.13;4.35;;;;;;;9.17;88.99;95133.19;4809042;29;20425;-91
2021/05/16 03:00:55;;;;;;;5.90;4.30;;;;;;;9.31;90.37;95155.97;4793948;29;20124;-92
2021/05/16 03:03:20;;;;;;;4.07;3.75;;;;;;;8.95;89.31;95111.31;4793922;29;20064;-93
2021/05/16 03:05:46;;;;;;;5.45;4.00;;;;;;;8.98;89.71;95120.44;4795004;29;20068;-91
2021/05/16 03:08:12;;;;;;;5.93;3.50;;;;;;;9.55;89.21;95201.81;4815859;29;20106;-92
2021/05/16 03:10:37;;;;;;;5.60;4.07;;;;;;;8.91;90.34;95092.53;4800059;29;20113;-92
2021/05/16 03:13:04;;;;;;;3.53;3.00;;;;;;;9.30;88.91;95153.75;4799802;29;20391;-91
2021/05/16 03:15:30;;;;;;;3.22;2.90;;;;;;;9.32;88.06;95157.50;4799753;29;20121;-91
2021/05/16 03:17:55;;;;;;;4.32;3.13;;;;;;;9.11;88.40;95127.00;4815912;29;20062;-92
2021/05/16 03:20:21;;;;;;;3.88;3.13;;;;;;;9.22;88.11;95148.03;4818432;29;20120;-92
2021/05/16 03:22:46;;;;;;;2.97;2.67;;;;;;;9.25;87.30;95149.75;4817721;29;20099;-91
2021/05/16 03:25:13;;;;;;;4.55;2.67;;;;;;;9.60;87.52;95203.84;4817789;29;20062;-92
2021/05/16 03:27:38;;;;;;;3.40;2.78;;;;;;;9.38;88.39;95158.28;4811163;29;20038;-92
2021/05/16 03:30:07;;;;;;;3.03;2.75;;;;;;;9.65;87.22;95197.72;4799939;29;20023;-92
2021/05/16 03:32:34;;;;;;;2.50;2.30;;;;;;;9.18;88.31;95129.25;4799585;29;20031;-93
2021/05/16 03:34:59;;;;;;;3.83;3.03;;;;;;;9.06;87.33;95102.56;4799626;29;20034;-91
2021/05/16 03:37:25;;;;;;;4.05;3.17;;;;;;;9.24;88.00;95136.72;4814562;29;20029;-88
2021/05/16 03:39:51;;;;;;;4.20;3.15;;;;;;;9.31;88.00;95141.69;4835887;29;20033;-89
2021/05/16 03:42:16;;;;;;;4.80;3.20;;;;;;;9.25;88.19;95132.78;4835817;29;20066;-89
2021/05/16 03:44:42;;;;;;;3.75;3.00;;;;;;;9.71;88.80;95197.78;4835623;29;20531;-90
2021/05/16 03:47:07;;;;;;;3.90;3.05;;;;;;;9.47;88.96;95151.94;4835696;29;20037;-90
2021/05/16 03:49:33;;;;;;;4.10;2.72;;;;;;;9.57;87.57;95145.16;4835839;29;20435;-90
2021/05/16 03:51:59;;;;;;;3.47;2.50;;;;;;;9.59;87.61;95136.56;4835904;29;20319;-89
2021/05/16 03:54:24;;;;;;;2.70;2.47;;;;;;;9.62;87.76;95128.19;4835692;29;20038;-92
2021/05/16 03:56:50;;;;;;;4.63;3.08;;;;;;;9.69;86.98;95135.13;4835743;29;20033;-92
2021/05/16 03:59:15;;;;;;;4.78;3.45;;;;;;;9.63;87.24;95126.97;4835718;29;20037;-92
2021/05/16 04:01:41;;;;;;;4.75;3.75;;;;;;;9.74;87.48;95145.28;4835620;29;20029;-93
2021/05/16 04:04:06;;;;;;;5.18;3.45;;;;;;;9.71;87.59;95143.56;4835843;29;20034;-92
2021/05/16 04:06:32;;;;;;;5.35;3.60;;;;;;;9.42;87.85;95106.56;4835661;29;20037;-91
2021/05/16 04:08:58;;;;;;;4.55;3.35;;;;;;;9.99;87.81;95198.00;4835675;29;20030;-92
2021/05/16 04:11:23;;;;;;;6.80;3.90;;;;;;;9.75;88.01;95160.34;4835581;29;20082;-92
2021/05/16 04:13:49;;;;;;;4.43;3.28;;;;;;;9.64;87.67;95152.09;4835669;29;20407;-91
2021/05/16 04:16:14;;;;;;;3.97;3.47;;;;;;;9.51;88.67;95124.63;4835626;29;20026;-91
2021/05/16 04:18:40;;;;;;;3.88;2.90;;;;;;;9.74;88.67;95145.28;4832270;29;20034;-92
2021/05/16 04:21:06;;;;;;;7.00;3.22;;;;;;;10.06;88.50;95194.09;4832729;29;20063;-92
2021/05/16 04:23:34;;;;;;;6.30;3.10;;;;;;;9.97;88.21;95176.81;4832506;29;20026;-91
2021/05/16 04:26:00;;;;;;;6.43;2.95;;;;;;;9.42;89.01;95093.75;4832382;29;20033;-92
2021/05/16 04:28:25;;;;;;;6.10;3.10;;;;;;;9.66;88.10;95127.97;4832447;29;20037;-92
2021/05/16 04:30:52;;;;;;;5.03;3.83;;;;;;;10.13;87.46;95196.41;4832495;29;20061;-90
2021/05/16 04:33:17;;;;;;;5.07;4.15;;;;;;;9.83;86.83;95149.81;4832484;29;20030;-91
2021/05/16 04:35:43;;;;;;;4.72;4.05;;;;;;;10.00;88.17;95164.22;4832377;29;20041;-92
2021/05/16 04:38:08;;;;;;;3.70;3.17;;;;;;;9.54;87.46;95089.19;4832274;29;20113;-93
2021/05/16 04:40:34;;;;;;;4.57;3.70;;;;;;;9.90;87.17;95144.66;4832307;29;20415;-91
2021/05/16 04:42:59;;;;;;;4.40;3.30;;;;;;;9.78;87.35;95109.81;4832130;29;20034;-92
2021/05/16 04:45:26;;;;;;;7.32;3.50;;;;;;;10.19;86.96;95189.78;4832027;29;20057;-93
2021/05/16 04:47:52;;;;;;;8.27;3.45;;;;;;;9.86;87.03;95138.00;4832074;29;20327;-93
2021/05/16 04:50:18;;;;;;;4.40;3.85;;;;;;;9.89;86.80;95147.88;4832092;29;20037;-93
2021/05/16 04:52:44;;;;;;;4.38;3.90;;;;;;;9.60;87.55;95097.38;4832024;29;20034;-92
2021/05/16 04:55:11;;;;;;;4.50;3.47;;;;;;;10.04;88.05;95153.16;4831881;29;20030;-92
2021/05/16 04:57:37;;;;;;;5.43;3.92;;;;;;;9.96;87.66;95131.19;4832152;29;20030;-93
2021/05/16 05:00:04;;;;;;;6.22;3.90;;;;;;;10.51;87.76;95197.19;4832088;29;20445;-94
2021/05/16 05:02:30;;;;;;;5.18;3.95;;;;;;;9.91;86.78;95119.06;4831823;29;20343;-92
2021/05/16 05:04:55;;;;;;;5.57;4.35;;;;;;;10.05;87.28;95143.81;4831942;29;20030;-92
2021/05/16 05:07:21;;;;;;;7.13;4.70;;;;;;;10.12;87.29;95141.41;4831847;29;20045;-93
2021/05/16 05:09:47;;;;;;;7.80;4.63;;;;;;;10.08;86.31;95129.28;4831924;29;20037;-92
2021/05/16 05:12:12;;;;;;;6.10;4.57;;;;;;;10.62;86.05;95205.38;4831705;29;20036;-94
2021/05/16 05:14:38;;;;;;;5.15;4.18;;;;;;;10.42;86.19;95189.97;4831732;29;20059;-93
2021/05/16 05:17:04;;;;;;;4.68;4.18;;;;;;;10.58;86.69;95211.03;4831681;29;20026;-91
2021/05/16 05:19:30;;;;;;;5.72;3.75;;;;;;;10.32;85.21;95181.25;4831652;29;20033;-92
2021/05/16 05:21:55;;;;;;;5.35;3.85;;;;;;;9.92;85.77;95130.66;4831494;29;20030;-91
2021/05/16 05:24:22;;;;;;;5.00;4.00;;;;;;;10.06;84.92;95165.00;4831502;29;20034;-91
2021/05/16 05:26:48;;;;;;;5.78;4.25;;;;;;;10.10;87.04;95173.69;4831521;29;20029;-94
2021/05/16 05:29:14;;;;;;;5.07;4.25;;;;;;;10.35;86.19;95207.44;4847413;29;20026;-92
2021/05/16 05:31:40;;;;;;;5.53;4.40;;;;;;;10.06;86.31;95165.00;4831616;29;20086;-92
2021/05/16 05:34:05;;;;;;;6.03;4.45;;;;;;;9.96;87.11;95142.78;4831441;29;20030;-91
2021/05/16 05:36:31;;;;;;;6.03;4.30;;;;;;;10.05;86.12;95152.69;4831526;29;20026;-92
2021/05/16 05:38:57;;;;;;;5.50;4.70;;;;;;;9.99;87.63;95138.34;4831408;29;20093;-93
2021/05/16 05:41:23;;;;;;;6.90;5.10;;;;;;;9.98;87.29;95162.00;4831295;29;20471;-92
2021/05/16 05:43:49;;;;;;;7.47;5.03;;;;;;;9.90;87.87;95139.25;4831434;29;20030;-92
2021/05/16 05:46:14;;;;;;;5.53;4.90;;;;;;;10.01;88.95;95149.44;4831141;29;20431;-93
2021/05/16 05:48:40;;;;;;;4.50;4.10;;;;;;;10.08;87.51;95157.16;4831366;29;20038;-92
2021/05/16 05:51:05;;;;;;;7.07;3.90;;;;;;;9.78;86.99;95137.69;4831283;29;20029;-92
2021/05/16 05:53:33;;;;;;;5.93;5.07;;;;;;;9.78;88.95;95117.97;4831038;29;20022;-92
2021/05/16 05:55:58;;;;;;;5.35;4.68;;;;;;;9.66;87.98;95109.75;4831294;29;20147;-92
2021/05/16 05:58:24;;;;;;;4.88;3.67;;;;;;;9.91;86.79;95145.44;4831222;29;20222;-91
2021/05/16 06:00:49;;;;;;;6.13;4.65;;;;;;;10.11;87.43;95172.44;4831089;29;20033;-91
2021/05/16 06:03:15;;;;;;;5.22;4.10;;;;;;;9.99;87.91;95151.91;4830825;29;20116;-91
2021/05/16 06:05:40;;;;;;;4.30;3.88;;;;;;;10.05;87.92;95154.66;4831126;29;20036;-93
2021/05/16 06:08:06;;;;;;;7.28;4.30;;;;;;;9.97;88.01;95154.34;4831013;29;20038;-91
2021/05/16 06:10:32;;;;;;;4.43;4.00;;;;;;;10.03;88.21;95176.09;4830821;29;20029;-93
2021/05/16 06:12:57;;;;;;;5.88;3.88;;;;;;;9.74;88.82;95129.00;4830805;29;20030;-89
2021/05/16 06:15:24;;;;;;;5.07;4.10;;;;;;;10.14;89.31;95179.63;4833402;29;20082;-91
2021/05/16 06:17:52;;;;;;;4.80;3.70;;;;;;;10.12;88.19;95176.66;4808242;29;20031;-90
2021/05/16 06:20:18;;;;;;;4.68;3.55;;;;;;;9.94;90.28;95130.91;4795003;29;20068;-90
2021/05/16 06:22:44;;;;;;;4.20;3.80;;;;;;;10.34;91.09;95184.25;4804099;29;20040;-92
2021/05/16 06:25:10;;;;;;;5.65;4.30;;;;;;;10.67;91.83;95229.13;4794353;29;20039;-91
2021/05/16 06:27:35;;;;;;;4.15;3.58;;;;;;;10.80;90.61;95232.13;4793886;29;20122;-91
2021/05/16 06:30:01;;;;;;;4.32;3.50;;;;;;;10.74;90.00;95215.81;4793708;29;20113;-91
2021/05/16 06:32:27;;;;;;;4.40;3.28;;;;;;;10.20;89.54;95142.44;4794357;29;20023;-91
2021/05/16 06:34:52;;;;;;;2.75;2.55;;;;;;;10.46;87.97;95174.94;4806361;29;20027;-92
2021/05/16 06:37:18;;;;;;;2.60;2.28;;;;;;;10.33;87.33;95158.31;4804814;29;20038;-90
2021/05/16 06:39:43;;;;;;;3.90;2.80;;;;;;;10.51;88.73;95162.63;4807523;29;20121;-90
2021/05/16 06:42:09;;;;;;;3.33;2.70;;;;;;;10.71;87.97;95186.94;4799840;29;20039;-89
2021/05/16 06:44:34;;;;;;;3.63;3.13;;;;;;;10.79;88.78;95183.75;4809796;29;20039;-89
2021/05/16 06:47:00;;;;;;;3.08;2.75;;;;;;;10.62;87.68;95186.38;4797951;29;20038;-94
2021/05/16 06:49:25;;;;;;;3.90;3.08;;;;;;;10.78;88.01;95196.59;4800061;29;20176;-91
2021/05/16 06:51:51;;;;;;;3.75;2.45;;;;;;;10.97;87.78;95216.69;4794249;29;20030;-90
2021/05/16 06:54:17;;;;;;;2.28;2.08;;;;;;;10.41;86.41;95137.66;4818966;29;20031;-92
2021/05/16 06:56:43;;;;;;;2.53;2.00;;;;;;;10.66;86.56;95168.63;4825513;29;20045;-92
2021/05/16 06:59:08;;;;;;;2.83;2.08;;;;;;;10.68;88.41;95163.44;4812695;29;20041;-94
2021/05/16 07:01:34;;;;;;;4.30;2.40;;;;;;;10.84;88.08;95161.31;4811707;29;20034;-93
2021/05/16 07:03:59;;;;;;;1.80;1.70;;;;;;;10.96;87.29;95169.00;4812266;29;20424;-94
2021/05/16 07:06:25;;;;;;;2.38;2.15;;;;;;;10.95;87.39;95166.78;4811962;29;20046;-93
2021/05/16 07:08:51;;;;;;;3.28;2.22;;;;;;;11.22;86.89;95181.69;4811518;29;20026;-94
2021/05/16 07:11:51;;;;;;;3.45;2.85;;;;;;;11.45;86.16;95217.84;4807751;29;20435;-95
2021/05/16 07:14:16;;;;;;;2.87;2.27;;;;;;;11.35;87.18;95175.81;4766207;29;20404;-92
2021/05/16 07:16:42;;;;;;;3.45;2.65;;;;;;;11.20;86.96;95146.13;4793799;29;20130;-94
2021/05/16 07:19:07;;;;;;;2.97;2.67;;;;;;;11.59;86.88;95184.25;4808209;29;20037;-94
2021/05/16 07:21:33;;;;;;;4.40;2.40;;;;;;;11.66;86.81;95178.31;4807996;29;20026;-92
2021/05/16 07:23:59;;;;;;;3.38;2.28;;;;;;;12.11;86.19;95218.47;4806701;29;20034;-93
2021/05/16 07:26:24;;;;;;;2.88;1.95;;;;;;;11.79;85.21;95173.16;4822168;29;20030;-92
2021/05/16 07:28:50;;;;;;;1.95;1.50;;;;;;;11.74;100.00;87965.13;4793679;29;20054;-94
2021/05/16 07:31:16;;;;;;;1.65;0.80;;;;;;;-145.61;100.00;68426.72;4793698;29;20034;-93
2021/05/16 07:33:41;;;;;;;1.83;1.00;;;;;;;-145.61;100.00;68426.72;4803678;29;20412;-92
2021/05/16 07:36:08;;;;;;;1.67;1.10;;;;;;;-145.61;100.00;68426.72;4809483;29;20416;-93
2021/05/16 07:38:34;;;;;;;1.58;1.00;;;;;;;-145.61;100.00;68426.72;4811696;29;20121;-93
2021/05/16 07:40:59;;;;;;;1.05;0.73;;;;;;;-145.61;100.00;68426.72;4811554;29;20184;-93
2021/05/16 07:43:25;;;;;;;0.60;0.60;;;;;;;-145.61;100.00;68426.72;4797431;29;20447;-93
2021/05/16 07:45:51;;;;;;;0.80;0.80;;;;;;;-145.61;100.00;68426.72;4820243;29;20065;-95
2021/05/16 07:48:18;;;;;;;1.45;0.70;;;;;;;-145.61;100.00;68426.72;4793689;29;20089;-92
2021/05/16 07:50:43;;;;;;;0.60;0.60;;;;;;;-145.61;100.00;68426.72;4793334;29;20031;-94
2021/05/16 07:53:10;;;;;;;0.98;0.68;;;;;;;-145.61;100.00;68426.72;4794441;29;20454;-93
2021/05/16 07:55:37;;;;;;;1.25;0.60;;;;;;;-145.61;100.00;68426.72;4796937;29;20038;-94
2021/05/16 07:58:03;;;;;;;1.08;0.80;;;;;;;-145.61;100.00;68426.72;4796710;29;20030;-92
2021/05/16 08:00:29;;;;;;;2.95;2.55;;;;;;;-145.61;100.00;68426.72;4796812;29;20097;-95
2021/05/16 08:02:55;;;;;;;1.02;0.60;;;;;;;-145.61;100.00;68426.72;4796819;29;20062;-93
2021/05/16 08:05:21;;;;;;;1.27;0.70;;;;;;;-145.61;100.00;68426.72;4796551;29;20038;-95
2021/05/16 08:07:46;;;;;;;0.70;0.50;;;;;;;-145.61;100.00;68426.72;4805145;29;20037;-93
2021/05/16 08:10:13;;;;;;;1.98;0.50;;;;;;;-145.61;100.00;68426.72;4818781;29;20026;-91
2021/05/16 08:12:39;;;;;;;2.20;2.00;;;;;;;-145.61;100.00;68426.72;4806799;29;20045;-92
2021/05/16 08:15:06;;;;;;;2.15;1.17;;;;;;;-145.61;100.00;68426.72;4797744;29;20031;-92
2021/05/16 08:17:33;;;;;;;0.90;0.60;;;;;;;-145.61;100.00;68426.72;4806856;29;20037;-92
2021/05/16 08:19:59;;;;;;;0.80;0.50;;;;;;;-145.61;100.00;68426.72;4824497;29;20045;-92
2021/05/16 08:22:24;;;;;;;0.50;0.50;;;;;;;-145.61;100.00;68426.72;4803668;29;20412;-93
2021/05/16 08:24:50;;;;;;;1.05;0.45;;;;;;;-145.61;100.00;68426.72;4806254;29;20042;-90
2021/05/16 08:27:15;;;;;;;0.85;0.43;;;;;;;-145.61;100.00;68426.72;4796261;29;20027;-92
2021/05/16 08:29:41;;;;;;;0.60;0.50;;;;;;;-145.61;100.00;68426.72;4807590;29;20054;-90
2021/05/16 08:32:07;;;;;;;0.30;0.30;;;;;;;-145.61;100.00;68426.72;4802976;29;20086;-91
2021/05/16 08:34:33;;;;;;;0.70;0.38;;;;;;;-145.61;100.00;68426.72;4804737;29;20087;-90
2021/05/16 08:37:00;;;;;;;0.32;0.32;;;;;;;-145.61;100.00;68426.72;4810221;29;20031;-92
2021/05/16 08:39:26;;;;;;;0.73;0.43;;;;;;;-145.61;100.00;68426.72;4801754;29;20434;-90
2021/05/16 08:41:52;;;;;;;1.48;0.38;;;;;;;-145.61;100.00;68426.72;4800094;29;20119;-91
2021/05/16 08:44:20;;;;;;;0.43;0.40;;;;;;;-145.61;100.00;68426.72;4809937;29;20187;-91
2021/05/16 08:46:45;;;;;;;0.38;0.20;;;;;;;-145.61;100.00;68426.72;4804241;29;20133;-92
2021/05/16 08:49:11;;;;;;;0.20;0.20;;;;;;;-145.61;100.00;68426.72;4795945;29;20126;-93
2021/05/16 08:51:37;;;;;;;0.30;0.20;;;;;;;-145.61;100.00;68426.72;4796825;29;20037;-92
2021/05/16 08:54:03;;;;;;;2.28;0.40;;;;;;;-145.61;100.00;68426.72;4814002;29;20037;-95
2021/05/16 08:56:28;;;;;;;0.75;0.30;;;;;;;-145.61;100.00;68426.72;4806882;29;20038;-94
2021/05/16 08:58:53;;;;;;;0.98;0.40;;;;;;;-145.61;100.00;68426.72;4795745;29;20047;-93
2021/05/16 09:01:24;;;;;;;1.45;0.30;;;;;;;-145.61;100.00;68426.72;4813998;29;20030;-92
2021/05/16 09:03:50;;;;;;;1.15;0.30;;;;;;;-145.61;100.00;68426.72;4823525;29;20053;-95
2021/05/16 09:06:16;;;;;;;0.50;0.35;;;;;;;-145.61;100.00;68426.72;4813671;29;20039;-93
2021/05/16 09:08:43;;;;;;;0.35;0.35;;;;;;;-145.61;100.00;68426.72;4798294;29;20035;-94
2021/05/16 09:11:09;;;;;;;1.45;0.50;;;;;;;-145.61;100.00;68426.72;4795536;29;20027;-93
2021/05/16 09:13:36;;;;;;;0.68;0.50;;;;;;;-145.61;100.00;68426.72;4801155;29;20037;-94
2021/05/16 09:16:04;;;;;;;1.63;0.60;;;;;;;-145.61;100.00;68426.72;4823147;29;20034;-95
2021/05/16 09:18:34;;;;;;;0.63;0.50;;;;;;;-145.61;100.00;68426.72;4809113;29;20058;-91
2021/05/16 09:21:33;;;;;;;1.00;0.60;;;;;;;-145.61;100.00;68426.72;4827076;29;20043;-94
2021/05/16 09:24:06;;;;;;;0.80;0.50;;;;;;;-145.61;100.00;68426.72;4804189;29;20038;-93
2021/05/16 09:26:56;;;;;;;0.70;0.60;;;;;;;-145.61;100.00;68426.72;4802084;29;20031;-95
2021/05/16 09:29:27;;;;;;;1.17;0.50;;;;;;;-145.61;100.00;68426.72;4823158;29;20121;-92
2021/05/16 09:35:14;;;;;;;0.68;0.60;;;;;;;-145.61;100.00;68426.72;4829508;29;20396;-91
2021/05/16 09:37:55;;;;;;;0.80;0.60;;;;;;;-145.61;100.00;68426.72;4812733;29;20034;-92
2021/05/16 09:40:29;;;;;;;1.73;1.38;;;;;;;-145.61;100.00;68426.72;4819583;29;20034;-91
2021/05/16 09:43:08;;;;;;;2.88;1.77;;;;;;;-145.61;100.00;68426.72;4813283;29;20098;-95
2021/05/16 09:45:47;;;;;;;2.83;1.40;;;;;;;-145.61;100.00;68426.72;4812638;29;20058;-91
2021/05/16 09:48:41;;;;;;;1.33;1.15;;;;;;;-145.61;100.00;68426.72;4813948;29;20038;-93
2021/05/16 09:51:11;;;;;;;1.77;1.00;;;;;;;-145.61;100.00;68426.72;4813033;29;20086;-92
2021/05/16 09:53:57;;;;;;;1.25;0.60;;;;;;;-145.61;100.00;68426.72;4812922;29;20018;-92
2021/05/16 09:56:25;;;;;;;2.75;0.60;;;;;;;-145.61;100.00;68426.72;4813005;29;20073;-92
2021/05/16 09:58:52;;;;;;;0.80;0.57;;;;;;;-145.61;100.00;68426.72;4812770;29;20118;-91
2021/05/16 10:01:19;;;;;;;2.15;0.80;;;;;;;-145.61;100.00;68426.72;4803991;29;20070;-89
2021/05/16 10:03:49;;;;;;;1.75;0.52;;;;;;;-145.61;100.00;68426.72;4801854;29;20034;-90
2021/05/16 10:06:17;;;;;;;1.85;0.80;;;;;;;-145.61;100.00;68426.72;4806885;29;20042;-91
2021/05/16 10:08:46;;;;;;;1.42;0.80;;;;;;;-145.61;100.00;68426.72;4801693;29;20432;-94
2021/05/16 10:11:13;;;;;;;2.10;1.10;;;;;;;-145.61;100.00;68426.72;4808071;29;20062;-93
2021/05/16 10:13:42;;;;;;;1.70;1.08;;;;;;;-145.61;100.00;68426.72;4805845;29;20122;-93
2021/05/16 10:16:14;;;;;;;1.52;1.05;;;;;;;-145.61;100.00;68426.72;4806902;29;20038;-92
2021/05/16 10:18:40;;;;;;;1.80;1.00;;;;;;;-145.61;100.00;68426.72;4800535;29;20031;-92
2021/05/16 10:21:55;;;;;;;1.63;1.23;;;;;;;-145.61;100.00;68426.72;4801983;29;20061;-92
2021/05/16 10:24:20;;;;;;;1.88;0.93;;;;;;;-145.61;100.00;68426.72;4829453;29;20056;-92
2021/05/16 10:26:46;;;;;;;0.93;0.80;;;;;;;-145.61;100.00;68426.72;4830652;29;20022;-91
2021/05/16 10:29:16;;;;;;;1.10;0.80;;;;;;;-145.61;100.00;68426.72;4803337;29;20039;-93
2021/05/16 10:31:44;;;;;;;1.23;0.70;;;;;;;-145.61;100.00;68426.72;4794395;29;20047;-93
2021/05/16 10:34:25;;;;;;;1.08;0.50;;;;;;;-145.61;100.00;68426.72;4794264;29;20076;-93
2021/05/16 10:36:51;;;;;;;2.17;0.60;;;;;;;-145.61;100.00;68426.72;4801850;29;20027;-94
2021/05/16 10:39:39;;;;;;;1.42;0.80;;;;;;;-145.61;100.00;68426.72;4822440;29;20483;-95
2021/05/16 10:42:20;;;;;;;0.82;0.80;;;;;;;-145.61;100.00;68426.72;4830715;29;20082;-95
2021/05/16 10:45:04;;;;;;;0.75;0.75;;;;;;;-145.61;100.00;68426.72;4830336;29;20037;-93
2021/05/16 10:47:43;;;;;;;1.40;0.77;;;;;;;-145.61;100.00;68426.72;4830515;29;20040;-95
2021/05/16 10:50:08;;;;;;;1.95;0.50;;;;;;;-145.61;100.00;68426.72;4824051;29;20152;-96
2021/05/16 10:52:34;;;;;;;5.05;4.30;;;;;;;-145.61;100.00;68426.72;4820364;29;20044;-93
2021/05/16 10:54:59;;;;;;;1.95;1.58;;;;;;;-145.61;100.00;68426.72;4830400;29;20042;-93
2021/05/16 10:57:38;;;;;;;2.00;1.35;;;;;;;-145.61;100.00;68426.72;4825193;29;20030;-93
2021/05/16 11:00:20;;;;;;;1.52;1.13;;;;;;;-145.61;100.00;68426.72;4830304;29;20120;-95
2021/05/16 11:03:40;;;;;;;1.42;0.95;;;;;;;-145.61;100.00;68426.72;4830383;29;20026;-93
2021/05/16 11:06:06;;;;;;;;;;;;;;;-145.61;100.00;68426.72;4740438;30;20043;-95
2021/05/16 11:08:31;;;;;;;1.92;1.33;;;;;;;-145.61;100.00;68426.72;4739937;30;19914;-93
2021/05/16 11:10:59;;;;;;;0.90;0.80;;;;;;;-145.61;100.00;68426.72;4791999;29;20062;-92
2021/05/16 11:13:27;;;;;;;1.85;1.27;;;;;;;-145.61;100.00;68426.72;4825356;29;20034;-94
2021/05/16 11:15:55;;;;;;;1.70;1.15;;;;;;;-145.61;100.00;68426.72;4816736;29;20069;-93
2021/05/16 11:18:24;;;;;;;3.38;1.60;;;;;;;-145.61;100.00;68426.72;4830360;29;20495;-91
2021/05/16 11:24:11;;;;;;;1.42;0.88;;;;;;;-145.61;100.00;68426.72;4809890;29;20045;-94
2021/05/16 11:26:37;;;;;;;2.20;0.90;;;;;;;-145.61;100.00;68426.72;4793889;29;20026;-95
2021/05/16 11:29:03;;;;;;;1.00;0.90;;;;;;;-145.61;100.00;68426.72;4797419;29;20031;-94
2021/05/16 11:31:32;;;;;;;1.48;0.75;;;;;;;-145.61;100.00;68426.72;4798303;29;20034;-94
2021/05/16 11:34:00;;;;;;;2.38;0.70;;;;;;;-145.61;100.00;68426.72;4802534;29;20060;-93
2021/05/16 11:36:28;;;;;;;1.05;0.73;;;;;;;-145.61;100.00;68426.72;4797360;29;20103;-95
2021/05/16 11:39:00;;;;;;;3.05;0.90;;;;;;;-145.61;100.00;68426.72;4802254;29;20037;-96
2021/05/16 11:41:37;;;;;;;1.63;0.90;;;;;;;-145.61;100.00;68426.72;4816855;29;20413;-95